Time;durP1;ratioP1;P1;durP2;ratioP2;P2;SDS_P1;SDS_P2;PMS_P1;PMS_P2;Temp;Humidity;BMP_temperature;BMP_pressure;BME280_temperature;BME280_humidity;BME280_pressure;Samples;Min_cycle;Max_cycle;Signal;HPM_P1;HPM_P2
2023/05/16 00:02:08;;;;;;;12.13;2.03;;;;;;;16.41;100.00;99728.78;5073242;28;20199;-75
2023/05/16 00:04:37;;;;;;;13.75;3.67;;;;;;;16.66;100.00;99738.88;5072978;28;20281;-76
2023/05/16 00:07:04;;;;;;;11.82;1.98;;;;;;;16.57;100.00;99725.06;5072689;28;20273;-74
2023/05/16 00:09:31;;;;;;;11.73;1.90;;;;;;;16.69;100.00;99740.59;5034463;28;20199;-76
2023/05/16 00:11:58;;;;;;;17.48;2.22;;;;;;;16.62;100.00;99746.81;5073023;28;20881;-75
2023/05/16 00:14:25;;;;;;;21.75;2.60;;;;;;;16.64;100.00;99755.50;5072982;28;20230;-76
2023/05/16 00:16:52;;;;;;;11.65;1.88;;;;;;;16.72;100.00;99764.13;5073231;28;20283;-76
2023/05/16 00:19:20;;;;;;;6.07;1.67;;;;;;;16.71;100.00;99770.22;5073658;28;20210;-75
2023/05/16 00:21:48;;;;;;;4.95;1.90;;;;;;;16.81;100.00;99772.69;5073084;28;20332;-75
2023/05/16 00:24:15;;;;;;;3.30;1.60;;;;;;;16.79;100.00;99757.91;5073487;28;20199;-76
2023/05/16 00:26:42;;;;;;;3.00;1.70;;;;;;;16.71;100.00;99749.28;5073115;28;20205;-76
2023/05/16 00:29:09;;;;;;;2.58;1.65;;;;;;;16.73;100.00;99739.66;5073309;28;20203;-74
2023/05/16 00:31:36;;;;;;;6.00;2.20;;;;;;;16.68;100.00;99744.09;5073123;28;20223;-75
2023/05/16 00:34:03;;;;;;;3.47;1.60;;;;;;;16.70;100.00;99739.69;5073220;28;20199;-76
2023/05/16 00:36:30;;;;;;;1.63;1.35;;;;;;;16.69;100.00;99735.38;5072873;28;20210;-75
2023/05/16 00:38:58;;;;;;;1.55;1.23;;;;;;;16.85;100.00;99740.31;5072999;28;20286;-75
2023/05/16 00:41:25;;;;;;;3.90;1.70;;;;;;;16.54;100.00;99739.03;5040244;28;20665;-75
2023/05/16 00:43:52;;;;;;;4.47;1.75;;;;;;;16.43;100.00;99713.91;5040390;28;20191;-76
2023/05/16 00:46:19;;;;;;;3.53;1.77;;;;;;;16.23;100.00;99660.09;5092775;28;20198;-76
2023/05/16 00:48:46;;;;;;;3.42;1.65;;;;;;;16.48;100.00;99696.41;5093085;28;20365;-75
2023/05/16 00:51:12;;;;;;;2.50;1.52;;;;;;;16.69;100.00;99735.38;5093292;28;20600;-75
2023/05/16 00:53:39;;;;;;;6.85;2.65;;;;;;;16.53;100.00;99734.69;5040801;28;20194;-75
2023/05/16 00:56:08;;;;;;;5.65;1.70;;;;;;;16.71;100.00;99726.59;5092924;28;20194;-77
2023/05/16 00:58:35;;;;;;;2.05;1.35;;;;;;;16.64;100.00;99727.56;5092839;28;20209;-76
2023/05/16 01:01:02;;;;;;;2.30;1.55;;;;;;;16.68;100.00;99731.00;5092816;28;20201;-76
2023/05/16 01:03:30;;;;;;;1.92;1.50;;;;;;;16.63;100.00;99720.59;5091777;28;20271;-75
2023/05/16 01:05:57;;;;;;;1.60;1.50;;;;;;;16.71;100.00;99723.97;5091453;28;20194;-75
2023/05/16 01:08:24;;;;;;;1.40;1.30;;;;;;;16.53;100.00;99698.03;5092401;28;20198;-75
2023/05/16 01:11:00;;;;;;;1.75;1.38;;;;;;;16.87;100.00;99723.72;5091386;28;20194;-75
2023/05/16 01:13:36;;;;;;;1.10;1.10;;;;;;;16.50;100.00;99660.59;5057641;28;20302;-75
2023/05/16 01:16:09;;;;;;;1.40;1.30;;;;;;;16.86;100.00;99733.34;5086032;28;20645;-75
2023/05/16 01:18:46;;;;;;;1.20;1.20;;;;;;;16.89;100.00;99743.75;5092257;28;20194;-75
2023/05/16 01:21:20;;;;;;;4.43;4.00;;;;;;;16.65;100.00;99720.59;5092015;28;20284;-75
2023/05/16 01:23:56;;;;;;;1.35;1.25;;;;;;;16.82;100.00;99740.38;5092279;28;20656;-76
2023/05/16 01:26:27;;;;;;;0.90;0.90;;;;;;;16.86;100.00;99754.28;5090965;28;20198;-76
2023/05/16 01:28:55;;;;;;;1.40;1.30;;;;;;;16.85;100.00;99742.94;5092320;28;20301;-76
2023/05/16 01:31:22;;;;;;;1.40;1.25;;;;;;;16.82;100.00;99723.81;5091808;28;20708;-76
2023/05/16 01:33:49;;;;;;;1.88;1.40;;;;;;;16.90;100.00;99736.78;5092381;28;20198;-76
2023/05/16 01:36:24;;;;;;;1.60;1.50;;;;;;;16.98;100.00;99742.75;5088136;28;20199;-76
2023/05/16 01:39:06;;;;;;;1.42;1.33;;;;;;;17.02;100.00;99741.78;5046343;28;20209;-76
2023/05/16 01:41:43;;;;;;;1.00;1.00;;;;;;;17.00;100.00;99728.75;5089412;28;20637;-76
2023/05/16 01:44:18;;;;;;;1.27;1.27;;;;;;;16.99;100.00;99727.00;5092308;28;20198;-76
2023/05/16 01:46:48;;;;;;;1.10;1.10;;;;;;;17.01;100.00;99727.88;5091909;28;20194;-76
2023/05/16 01:49:20;;;;;;;1.30;1.20;;;;;;;16.98;100.00;99725.25;5091635;28;20624;-75
2023/05/16 01:52:04;;;;;;;1.50;1.40;;;;;;;16.95;100.00;99735.78;5091996;28;20225;-75
2023/05/16 01:54:33;;;;;;;1.15;1.15;;;;;;;16.89;100.00;99729.78;5091544;28;20266;-75
2023/05/16 01:57:03;;;;;;;1.33;1.27;;;;;;;16.73;100.00;99722.19;5091774;28;20209;-76
2023/05/16 01:59:30;;;;;;;1.50;1.40;;;;;;;16.54;100.00;99719.84;5091476;28;20276;-76
2023/05/16 02:01:58;;;;;;;1.88;1.42;;;;;;;16.30;100.00;99724.53;5091786;28;20286;-76
2023/05/16 02:04:25;;;;;;;1.67;1.40;;;;;;;16.39;100.00;99715.69;5091568;28;20209;-76
2023/05/16 02:06:52;;;;;;;2.00;1.60;;;;;;;16.25;100.00;99681.88;5091074;28;20204;-75
2023/05/16 02:09:19;;;;;;;1.90;1.52;;;;;;;16.40;100.00;99704.34;5091147;28;20198;-76
2023/05/16 02:11:46;;;;;;;2.33;1.60;;;;;;;16.31;100.00;99715.81;5039633;28;20228;-76
2023/05/16 02:14:14;;;;;;;1.00;1.00;;;;;;;16.49;100.00;99709.44;5091342;28;20222;-76
2023/05/16 02:16:41;;;;;;;1.20;1.20;;;;;;;16.29;100.00;99708.88;5089943;28;20661;-75
2023/05/16 02:19:08;;;;;;;4.63;2.00;;;;;;;16.20;100.00;99698.53;5091376;28;20544;-75
2023/05/16 02:21:35;;;;;;;1.40;1.30;;;;;;;16.27;100.00;99710.63;5085875;28;20218;-75
2023/05/16 02:24:01;;;;;;;1.20;1.20;;;;;;;16.35;100.00;99704.41;5028484;28;20691;-76
2023/05/16 02:26:28;;;;;;;1.60;1.50;;;;;;;16.28;100.00;99713.22;5091083;28;20217;-75
2023/05/16 02:28:55;;;;;;;1.52;1.40;;;;;;;16.33;100.00;99706.19;5091141;28;20690;-75
2023/05/16 02:31:32;;;;;;;1.30;1.20;;;;;;;16.23;100.00;99699.34;5091398;28;20578;-76
2023/05/16 02:33:58;;;;;;;1.52;1.42;;;;;;;16.27;100.00;99706.25;5090441;28;20198;-76
2023/05/16 02:36:25;;;;;;;1.35;1.25;;;;;;;16.34;100.00;99707.91;5038019;28;20194;-76
2023/05/16 02:38:53;;;;;;;1.50;1.40;;;;;;;16.15;100.00;99688.16;5091254;28;20280;-76
2023/05/16 02:41:21;;;;;;;1.08;1.08;;;;;;;16.24;100.00;99716.78;5072318;28;20238;-76
2023/05/16 02:43:47;;;;;;;1.23;1.23;;;;;;;16.22;100.00;99713.34;5070641;28;20201;-75
2023/05/16 02:46:22;;;;;;;1.50;1.40;;;;;;;16.21;100.00;99719.44;5070843;28;20199;-75
2023/05/16 02:48:51;;;;;;;1.40;1.30;;;;;;;16.01;100.00;99697.06;5068157;28;20206;-75
2023/05/16 02:51:17;;;;;;;1.92;1.75;;;;;;;15.95;100.00;99703.22;5070276;28;20225;-78
2023/05/16 02:53:45;;;;;;;2.03;1.50;;;;;;;16.13;100.00;99708.22;5074835;28;20230;-75
2023/05/16 02:56:12;;;;;;;4.47;1.48;;;;;;;16.02;100.00;99683.94;5075022;28;20256;-75
2023/05/16 02:58:38;;;;;;;4.97;1.48;;;;;;;16.06;100.00;99700.47;5074714;28;20198;-75
2023/05/16 03:01:05;;;;;;;6.82;1.73;;;;;;;16.03;100.00;99701.38;5036381;28;20565;-76
2023/05/16 03:03:34;;;;;;;5.97;1.58;;;;;;;16.00;100.00;99700.56;5068394;28;20681;-76
2023/05/16 03:06:02;;;;;;;5.90;1.75;;;;;;;15.80;100.00;99700.81;5073840;28;20707;-75
2023/05/16 03:08:29;;;;;;;3.40;1.60;;;;;;;15.64;100.00;99680.97;5074511;28;20206;-76
2023/05/16 03:10:56;;;;;;;8.85;2.15;;;;;;;15.62;100.00;99688.84;5074660;28;20659;-77
2023/05/16 03:13:23;;;;;;;4.20;1.42;;;;;;;15.80;100.00;99670.28;5073430;28;20237;-77
2023/05/16 03:15:50;;;;;;;5.65;2.03;;;;;;;15.79;100.00;99665.09;5073817;28;20674;-76
2023/05/16 03:18:16;;;;;;;6.03;1.88;;;;;;;15.75;100.00;99676.47;5074817;28;20214;-76
2023/05/16 03:20:43;;;;;;;4.72;1.60;;;;;;;15.68;100.00;99667.84;5073988;28;20202;-76
2023/05/16 03:23:11;;;;;;;5.28;1.65;;;;;;;15.80;100.00;99659.81;5074685;28;20195;-77
2023/05/16 03:25:38;;;;;;;3.03;1.30;;;;;;;15.60;100.00;99659.22;5074699;28;20207;-77
2023/05/16 03:28:06;;;;;;;6.30;1.83;;;;;;;15.62;100.00;99667.94;5022389;28;20199;-76
2023/05/16 03:30:33;;;;;;;6.28;1.75;;;;;;;15.64;100.00;99667.88;5034664;28;20234;-77
2023/05/16 03:33:00;;;;;;;5.03;1.70;;;;;;;15.82;100.00;99714.72;5062642;28;20226;-76
2023/05/16 03:35:27;;;;;;;5.22;1.73;;;;;;;16.05;100.00;99723.13;5071999;28;20233;-76
2023/05/16 03:37:54;;;;;;;4.43;1.52;;;;;;;16.16;100.00;99715.16;5071216;28;20210;-74
2023/05/16 03:40:22;;;;;;;4.90;1.70;;;;;;;16.01;100.00;99703.16;5067980;28;20234;-77
2023/05/16 03:42:49;;;;;;;4.85;1.77;;;;;;;15.82;100.00;99691.19;5068508;28;20706;-77
2023/05/16 03:45:16;;;;;;;3.08;1.38;;;;;;;15.90;100.00;99706.78;5072067;28;20235;-77
2023/05/16 03:47:43;;;;;;;3.85;1.52;;;;;;;16.05;100.00;99725.75;5071859;28;20210;-75
2023/05/16 03:50:10;;;;;;;4.65;1.70;;;;;;;16.25;100.00;99707.19;5071741;28;20199;-77
2023/05/16 03:52:37;;;;;;;3.90;1.58;;;;;;;16.31;100.00;99707.94;5067581;28;20222;-77
2023/05/16 03:55:04;;;;;;;4.82;1.70;;;;;;;16.22;100.00;99668.88;5069632;28;20772;-77
2023/05/16 03:57:33;;;;;;;4.05;1.65;;;;;;;16.56;100.00;99712.84;5063877;28;20210;-76
2023/05/16 04:00:01;;;;;;;4.82;1.63;;;;;;;16.15;100.00;99697.75;5060968;28;20522;-77
2023/05/16 04:02:27;;;;;;;4.38;1.63;;;;;;;16.47;100.00;99711.22;5072648;28;20214;-76
2023/05/16 04:04:54;;;;;;;4.97;1.73;;;;;;;16.77;100.00;99731.72;5072838;28;20206;-77
2023/05/16 04:07:21;;;;;;;4.63;1.70;;;;;;;16.95;100.00;99725.31;5071013;28;20203;-76
2023/05/16 04:09:47;;;;;;;2.65;1.50;;;;;;;16.95;100.00;99730.56;5072738;28;20199;-76
2023/05/16 04:12:14;;;;;;;3.10;1.42;;;;;;;16.99;100.00;99729.63;5073159;28;20713;-77
2023/05/16 04:14:42;;;;;;;3.75;1.60;;;;;;;17.06;100.00;99736.47;5073588;28;20256;-78
2023/05/16 04:17:09;;;;;;;4.53;1.67;;;;;;;16.96;100.00;99727.06;5053695;28;20207;-77
2023/05/16 04:19:36;;;;;;;4.45;1.65;;;;;;;17.09;100.00;99720.72;5057563;28;20281;-78
2023/05/16 04:22:03;;;;;;;5.40;1.95;;;;;;;17.35;100.00;99729.00;5073059;28;20202;-77
2023/05/16 04:24:30;;;;;;;5.80;1.73;;;;;;;17.43;100.00;99728.84;5073296;28;20199;-76
2023/05/16 04:26:56;;;;;;;4.18;1.70;;;;;;;17.68;97.43;99740.66;5073032;28;20206;-76
2023/05/16 04:29:23;;;;;;;3.30;1.60;;;;;;;17.68;95.50;99738.03;5072063;28;20214;-76
2023/05/16 04:31:51;;;;;;;3.65;1.67;;;;;;;17.92;93.99;99739.28;5072781;28;20195;-76
2023/05/16 04:34:18;;;;;;;4.85;1.90;;;;;;;17.88;92.66;99735.00;5071863;28;20223;-76
2023/05/16 04:36:45;;;;;;;4.20;1.60;;;;;;;18.11;90.16;99738.03;5072590;28;20202;-77
2023/05/16 04:39:11;;;;;;;4.65;1.70;;;;;;;18.45;90.54;99738.13;5057643;28;20196;-76
2023/05/16 04:41:38;;;;;;;3.13;1.40;;;;;;;18.57;87.07;99713.41;5055189;28;20642;-76
2023/05/16 04:44:05;;;;;;;4.30;2.25;;;;;;;18.75;85.39;99732.22;5063779;28;20302;-76
2023/05/16 04:46:32;;;;;;;5.20;1.95;;;;;;;18.98;85.69;99734.28;5053197;28;20930;-76
2023/05/16 04:49:00;;;;;;;4.40;1.63;;;;;;;19.27;83.79;99739.66;5052598;28;20226;-77
2023/05/16 04:51:27;;;;;;;3.35;1.33;;;;;;;18.98;83.86;99734.28;5066143;28;20211;-77
2023/05/16 04:53:53;;;;;;;2.78;1.23;;;;;;;19.04;83.11;99730.66;5063210;28;20237;-76
2023/05/16 04:56:21;;;;;;;3.78;1.50;;;;;;;19.04;81.54;99728.03;5063221;28;20200;-78
2023/05/16 04:58:48;;;;;;;3.92;1.60;;;;;;;20.04;78.36;99744.63;5054733;28;20203;-78
2023/05/16 05:01:14;;;;;;;5.50;2.17;;;;;;;20.38;74.08;99735.72;5065833;28;20211;-78
2023/05/16 05:03:41;;;;;;;2.70;1.40;;;;;;;21.38;68.71;99737.75;5071067;28;20221;-77
2023/05/16 05:06:09;;;;;;;3.15;1.40;;;;;;;21.67;66.02;99745.53;5069941;28;20681;-77
2023/05/16 05:08:36;;;;;;;2.38;1.48;;;;;;;21.69;72.18;99754.25;5063831;28;20639;-72
2023/05/16 05:11:03;;;;;;;3.90;1.70;;;;;;;21.59;64.50;99752.84;5059319;28;20209;-75
2023/05/16 05:13:30;;;;;;;3.63;1.67;;;;;;;21.65;65.94;99758.75;5051562;28;20220;-74
2023/05/16 05:15:57;;;;;;;3.13;1.42;;;;;;;21.55;65.05;99757.38;5060831;28;20222;-78
2023/05/16 05:18:24;;;;;;;4.28;2.00;;;;;;;21.19;67.18;99742.78;5068827;28;20203;-77
2023/05/16 05:20:51;;;;;;;2.72;1.50;;;;;;;20.61;70.41;99734.13;5051558;28;20663;-72
2023/05/16 05:23:20;;;;;;;4.07;1.70;;;;;;;20.28;74.91;99746.56;5051655;28;20786;-80
2023/05/16 05:25:46;;;;;;;2.30;1.40;;;;;;;19.90;77.79;99746.78;5064594;28;20295;-80
2023/05/16 05:28:13;;;;;;;3.08;1.48;;;;;;;20.62;78.07;99740.25;5034591;28;20206;-78
2023/05/16 05:30:40;;;;;;;1.65;1.23;;;;;;;20.32;78.22;99747.34;5070978;28;20580;-78
2023/05/16 05:33:07;;;;;;;2.70;1.42;;;;;;;20.40;78.06;99734.81;5071604;28;20742;-78
2023/05/16 05:35:34;;;;;;;2.72;1.50;;;;;;;19.82;81.49;99735.59;5071568;28;20649;-75
2023/05/16 05:38:00;;;;;;;3.35;1.65;;;;;;;19.75;82.83;99734.03;5070236;28;20622;-75
2023/05/16 05:40:29;;;;;;;4.25;1.70;;;;;;;19.47;86.10;99738.34;5071366;28;20277;-76
2023/05/16 05:42:55;;;;;;;3.05;1.42;;;;;;;19.51;85.60;99724.19;5070980;28;20203;-76
2023/05/16 05:45:22;;;;;;;3.30;1.45;;;;;;;20.17;83.22;99738.06;5057640;28;20195;-78
2023/05/16 05:47:49;;;;;;;2.70;1.55;;;;;;;20.00;82.49;99734.22;5054805;28;20195;-76
2023/05/16 05:50:16;;;;;;;3.00;1.55;;;;;;;19.87;82.90;99744.22;5050838;28;20234;-75
2023/05/16 05:52:43;;;;;;;2.15;1.30;;;;;;;20.12;82.50;99739.97;5054882;28;20613;-76
2023/05/16 05:55:10;;;;;;;2.58;1.38;;;;;;;20.26;82.04;99737.78;5060482;28;20630;-78
2023/05/16 05:57:38;;;;;;;3.40;1.60;;;;;;;20.48;83.60;99731.91;5050848;28;20200;-76
2023/05/16 06:00:06;;;;;;;2.40;1.38;;;;;;;20.03;82.75;99734.97;5051143;28;20227;-76
2023/05/16 06:02:33;;;;;;;1.67;1.40;;;;;;;19.94;83.89;99740.50;5017124;28;20278;-76
2023/05/16 06:05:00;;;;;;;2.53;1.40;;;;;;;20.04;83.89;99741.97;5058216;28;20202;-78
2023/05/16 06:07:27;;;;;;;3.50;1.77;;;;;;;20.38;82.38;99731.34;5056888;28;20215;-76
2023/05/16 06:09:53;;;;;;;3.70;1.63;;;;;;;20.38;82.71;99702.38;5056290;28;20195;-76
2023/05/16 06:12:20;;;;;;;3.28;1.73;;;;;;;20.31;82.49;99723.66;5070182;28;20209;-78
2023/05/16 06:14:48;;;;;;;2.67;1.40;;;;;;;20.14;84.00;99721.50;5056790;28;20296;-75
2023/05/16 06:17:15;;;;;;;2.08;1.27;;;;;;;19.89;85.29;99731.03;5060292;28;20207;-76
2023/05/16 06:19:42;;;;;;;3.53;1.60;;;;;;;19.88;85.81;99714.38;5052775;28;20195;-75
2023/05/16 06:22:09;;;;;;;1.98;1.40;;;;;;;19.88;86.08;99732.78;5070251;28;20199;-76
2023/05/16 06:24:35;;;;;;;3.40;1.85;;;;;;;19.90;87.48;99733.63;5069163;28;20230;-75
2023/05/16 06:27:02;;;;;;;2.92;1.60;;;;;;;20.09;85.57;99729.53;5056566;28;20631;-75
2023/05/16 06:29:29;;;;;;;4.63;1.85;;;;;;;20.11;85.04;99709.31;5069778;28;20191;-76
2023/05/16 06:31:57;;;;;;;2.58;1.38;;;;;;;20.35;84.88;99736.69;5069996;28;20203;-76
2023/05/16 06:34:26;;;;;;;5.20;1.92;;;;;;;20.16;87.06;99752.13;5057349;28;20226;-76
2023/05/16 06:36:53;;;;;;;3.72;2.35;;;;;;;20.39;84.79;99748.88;5050518;28;20200;-76
2023/05/16 06:39:20;;;;;;;4.32;2.47;;;;;;;20.71;83.14;99742.59;5050283;28;20219;-76
2023/05/16 06:41:47;;;;;;;2.42;1.33;;;;;;;20.68;84.04;99745.34;5050177;28;20726;-77
2023/05/16 06:44:14;;;;;;;5.28;1.75;;;;;;;20.65;85.12;99748.06;5050306;28;20684;-76
2023/05/16 06:46:41;;;;;;;3.90;1.60;;;;;;;21.21;82.22;99747.13;5050104;28;20206;-77
2023/05/16 06:49:09;;;;;;;3.17;1.45;;;;;;;21.75;79.86;99751.41;4999140;28;20214;-74
2023/05/16 06:51:36;;;;;;;2.15;1.30;;;;;;;21.91;78.49;99743.81;5050069;28;20223;-75
2023/05/16 06:54:03;;;;;;;1.80;1.20;;;;;;;22.32;74.74;99740.50;5050028;28;20235;-75
2023/05/16 06:56:30;;;;;;;3.08;1.63;;;;;;;22.81;73.96;99744.75;5050441;28;20207;-75
2023/05/16 06:58:57;;;;;;;1.90;1.30;;;;;;;22.42;71.16;99746.28;5050349;28;20207;-75
2023/05/16 07:01:24;;;;;;;4.18;1.75;;;;;;;22.67;71.20;99752.38;5050046;28;20642;-77
2023/05/16 07:03:51;;;;;;;2.35;1.38;;;;;;;22.63;70.57;99758.66;5050494;28;20191;-75
2023/05/16 07:06:19;;;;;;;3.53;1.70;;;;;;;22.96;69.30;99765.28;5050241;28;20286;-76
2023/05/16 07:08:46;;;;;;;2.85;1.55;;;;;;;22.60;69.39;99770.22;5049983;28;20207;-75
2023/05/16 07:11:13;;;;;;;2.40;1.42;;;;;;;22.54;68.62;99759.91;5049930;28;20195;-75
2023/05/16 07:13:39;;;;;;;1.92;1.30;;;;;;;22.63;69.50;99777.16;4998583;28;20219;-75
2023/05/16 07:16:07;;;;;;;2.78;1.35;;;;;;;22.88;68.66;99777.94;4999037;28;20676;-74
2023/05/16 07:18:34;;;;;;;4.38;1.75;;;;;;;23.14;67.84;99780.41;5050163;28;20277;-75
2023/05/16 07:21:00;;;;;;;2.30;1.30;;;;;;;23.26;66.10;99773.72;5049750;28;20225;-75
2023/05/16 07:23:29;;;;;;;2.33;1.40;;;;;;;23.31;65.90;99781.47;5049920;28;20573;-74
2023/05/16 07:25:56;;;;;;;4.00;2.03;;;;;;;22.60;67.64;99777.28;5050016;28;20203;-75
2023/05/16 07:28:22;;;;;;;3.65;1.52;;;;;;;23.14;67.54;99785.72;5049895;28;20196;-76
2023/05/16 07:30:49;;;;;;;2.17;1.38;;;;;;;22.96;67.80;99775.88;4998733;28;20199;-76
2023/05/16 07:33:16;;;;;;;2.08;1.30;;;;;;;22.96;67.82;99775.88;5049666;28;20725;-75
2023/05/16 07:35:43;;;;;;;3.00;1.35;;;;;;;23.43;66.77;99786.31;5069690;28;20703;-76
2023/05/16 07:38:10;;;;;;;3.83;1.98;;;;;;;23.66;65.89;99788.81;5020076;28;20206;-75
2023/05/16 07:40:38;;;;;;;1.80;1.42;;;;;;;23.94;64.81;99764.63;5073487;28;20238;-76
2023/05/16 07:43:05;;;;;;;1.77;1.40;;;;;;;23.91;64.84;99778.88;5038043;28;20198;-76
2023/05/16 07:45:32;;;;;;;1.83;1.52;;;;;;;23.17;64.84;99777.63;5073960;28;20199;-76
2023/05/16 07:47:59;;;;;;;1.17;1.10;;;;;;;23.27;66.41;99795.75;5073470;28;20194;-76
2023/05/16 07:50:26;;;;;;;2.08;1.48;;;;;;;22.99;68.01;99796.03;5073126;28;20289;-76
2023/05/16 07:52:52;;;;;;;2.03;1.40;;;;;;;22.96;68.86;99796.16;5073093;28;20657;-76
2023/05/16 07:55:20;;;;;;;1.40;1.30;;;;;;;23.13;68.16;99793.69;5073121;28;20230;-76
2023/05/16 07:57:49;;;;;;;1.80;1.35;;;;;;;23.41;67.43;99788.09;5073438;28;20252;-77
2023/05/16 08:00:17;;;;;;;1.40;1.30;;;;;;;23.36;66.87;99792.75;5073062;28;20195;-77
2023/05/16 08:02:44;;;;;;;1.00;1.00;;;;;;;23.40;66.83;99791.69;5073274;28;20211;-76
2023/05/16 08:05:10;;;;;;;1.08;1.08;;;;;;;23.45;66.39;99784.44;5072949;28;20195;-77
2023/05/16 08:07:37;;;;;;;1.00;1.00;;;;;;;23.34;66.65;99774.28;5073119;28;20202;-76
2023/05/16 08:10:05;;;;;;;1.10;1.10;;;;;;;23.19;67.96;99790.78;5073214;28;20281;-77
2023/05/16 08:12:31;;;;;;;1.23;1.20;;;;;;;23.06;69.50;99793.09;5073090;28;20222;-76
2023/05/16 08:15:00;;;;;;;1.20;1.15;;;;;;;23.23;69.03;99793.25;5072609;28;20227;-76
2023/05/16 08:17:26;;;;;;;1.40;1.30;;;;;;;22.82;70.35;99791.44;5072806;28;20248;-74
2023/05/16 08:19:53;;;;;;;1.50;1.40;;;;;;;22.23;74.04;99793.66;5072972;28;20199;-76
2023/05/16 08:22:20;;;;;;;1.23;1.17;;;;;;;21.59;81.57;99795.06;5073154;28;20703;-77
2023/05/16 08:24:47;;;;;;;1.40;1.30;;;;;;;21.58;83.35;99785.44;5072581;28;20264;-76
2023/05/16 08:27:13;;;;;;;1.80;1.70;;;;;;;21.19;84.58;99767.41;5073087;28;20199;-77
2023/05/16 08:29:40;;;;;;;1.92;1.52;;;;;;;21.15;87.39;99757.03;5072196;28;20202;-76
2023/05/16 08:32:09;;;;;;;1.95;1.40;;;;;;;21.31;87.14;99746.81;5072423;28;20202;-76
2023/05/16 08:34:36;;;;;;;2.55;1.75;;;;;;;21.31;86.52;99752.06;5021080;28;20238;-77
2023/05/16 08:37:03;;;;;;;2.25;1.40;;;;;;;21.30;86.40;99737.19;5073161;28;20226;-78
2023/05/16 08:39:30;;;;;;;1.65;1.35;;;;;;;21.38;85.13;99743.03;5072854;28;20227;-78
2023/05/16 08:41:57;;;;;;;1.40;1.30;;;;;;;22.16;84.10;99768.41;5072970;28;20242;-77
2023/05/16 08:44:24;;;;;;;1.85;1.65;;;;;;;22.81;77.29;99757.09;5073118;28;20285;-78
2023/05/16 08:46:52;;;;;;;1.60;1.35;;;;;;;23.40;74.25;99760.78;5072968;28;20199;-76
2023/05/16 08:49:21;;;;;;;1.35;1.25;;;;;;;23.89;70.31;99754.28;5072863;28;20528;-78
2023/05/16 08:51:51;;;;;;;1.85;1.42;;;;;;;23.39;68.91;99713.22;5072855;28;20199;-76
2023/05/16 08:54:18;;;;;;;1.73;1.40;;;;;;;23.70;68.55;99779.81;5072826;28;20222;-76
2023/05/16 08:56:47;;;;;;;2.42;1.55;;;;;;;23.90;68.29;99781.63;5072563;28;20221;-76
2023/05/16 08:59:13;;;;;;;1.73;1.42;;;;;;;24.35;67.16;99762.81;5072842;28;20210;-76
2023/05/16 09:01:41;;;;;;;1.90;1.30;;;;;;;24.37;66.31;99771.53;5020820;28;20202;-74
2023/05/16 09:04:09;;;;;;;1.55;1.23;;;;;;;24.75;65.61;99789.19;5072438;28;20198;-76
2023/05/16 09:06:37;;;;;;;2.20;1.45;;;;;;;24.70;64.54;99764.66;5072712;28;20206;-77
2023/05/16 09:09:06;;;;;;;2.15;1.33;;;;;;;24.46;66.34;99745.47;5072496;28;20209;-76
2023/05/16 09:11:34;;;;;;;2.13;1.48;;;;;;;24.71;64.00;99745.16;5072632;28;20206;-76
2023/05/16 09:14:00;;;;;;;3.05;2.00;;;;;;;24.34;66.03;99750.47;5072240;28;20226;-76
2023/05/16 09:16:27;;;;;;;2.13;1.33;;;;;;;24.83;67.12;99752.53;5072570;28;20199;-77
2023/05/16 09:18:56;;;;;;;2.65;1.55;;;;;;;24.87;64.41;99763.88;5072334;28;20248;-75
2023/05/16 09:21:31;;;;;;;2.03;1.33;;;;;;;24.79;66.06;99745.66;5072063;28;20203;-77
2023/05/16 09:24:03;;;;;;;2.53;1.48;;;;;;;25.12;65.17;99730.75;5072062;28;20706;-77
2023/05/16 09:26:31;;;;;;;3.08;1.92;;;;;;;25.35;65.19;99747.31;5072442;28;20217;-76
2023/05/16 09:28:58;;;;;;;2.75;1.58;;;;;;;25.15;65.37;99746.50;5072273;28;20225;-76
2023/05/16 09:31:26;;;;;;;1.85;1.27;;;;;;;25.21;65.00;99733.88;5072063;28;20203;-76
2023/05/16 09:33:53;;;;;;;2.05;1.27;;;;;;;25.50;65.61;99727.97;5071977;28;20226;-76
2023/05/16 09:36:20;;;;;;;2.33;1.33;;;;;;;25.35;65.21;99736.69;5071936;28;20203;-76
2023/05/16 09:38:47;;;;;;;2.78;1.40;;;;;;;24.98;66.32;99737.69;5071711;28;20195;-76
2023/05/16 09:41:15;;;;;;;3.22;1.73;;;;;;;24.45;71.51;99716.38;5072104;28;20226;-76
2023/05/16 09:43:44;;;;;;;2.92;1.90;;;;;;;24.37;73.74;99706.13;5020014;28;20249;-78
2023/05/16 09:46:14;;;;;;;3.22;1.50;;;;;;;24.64;71.06;99686.28;5071697;28;20209;-75
2023/05/16 09:48:44;;;;;;;2.35;1.50;;;;;;;24.81;71.04;99709.31;5071595;28;20195;-76
2023/05/16 09:51:12;;;;;;;7.15;2.80;;;;;;;24.67;73.31;99690.56;5019840;28;20207;-76
2023/05/16 09:53:40;;;;;;;2.92;1.35;;;;;;;24.73;73.20;99673.47;5071878;28;20195;-77
2023/05/16 09:56:10;;;;;;;4.20;1.73;;;;;;;24.83;72.72;99665.03;5068181;28;20602;-77
2023/05/16 09:58:46;;;;;;;3.33;1.45;;;;;;;25.31;72.42;99682.91;5051166;28;20214;-78
2023/05/16 10:01:13;;;;;;;2.90;1.42;;;;;;;25.55;69.34;99691.41;5050594;28;20592;-77
2023/05/16 10:03:41;;;;;;;3.00;1.60;;;;;;;25.67;69.62;99666.03;5053140;28;20206;-77
2023/05/16 10:06:08;;;;;;;2.83;1.40;;;;;;;26.30;69.40;99680.28;5056860;28;20199;-77
2023/05/16 10:08:36;;;;;;;2.85;1.58;;;;;;;26.45;64.95;99684.75;5071298;28;20329;-76
2023/05/16 10:11:04;;;;;;;3.75;1.65;;;;;;;26.03;66.94;99686.16;5022135;28;20203;-76
2023/05/16 10:13:33;;;;;;;3.63;1.48;;;;;;;26.67;64.90;99705.66;5050992;28;20671;-76
2023/05/16 10:16:06;;;;;;;3.53;1.45;;;;;;;27.31;61.95;99701.00;5050821;28;20718;-77
2023/05/16 10:18:35;;;;;;;1.58;1.15;;;;;;;27.39;61.77;99696.09;5051446;28;20222;-76
2023/05/16 10:21:05;;;;;;;4.80;1.63;;;;;;;27.52;60.62;99685.56;5050858;28;20586;-76
2023/05/16 10:23:33;;;;;;;3.72;1.58;;;;;;;27.33;62.54;99688.44;5051022;28;20226;-75
2023/05/16 10:26:05;;;;;;;4.32;1.58;;;;;;;27.27;62.13;99691.47;5051077;28;20213;-75
2023/05/16 10:28:32;;;;;;;5.40;1.80;;;;;;;26.75;62.21;99667.06;5050777;28;20670;-75
2023/05/16 10:31:01;;;;;;;4.10;1.70;;;;;;;26.63;63.63;99670.41;5050687;28;20196;-75
2023/05/16 10:33:28;;;;;;;2.28;1.20;;;;;;;26.98;62.35;99653.28;5051114;28;20311;-78
2023/05/16 10:35:56;;;;;;;3.35;1.40;;;;;;;27.42;62.20;99653.28;5050792;28;20230;-76
2023/05/16 10:38:24;;;;;;;3.80;1.45;;;;;;;27.35;61.52;99657.28;4999915;28;20226;-82
2023/05/16 10:40:52;;;;;;;4.07;1.60;;;;;;;28.11;59.49;99657.06;5065767;28;20723;-84
2023/05/16 10:43:26;;;;;;;3.67;1.52;;;;;;;29.20;57.18;99666.66;5070499;28;20206;-75
2023/05/16 10:45:57;;;;;;;4.78;1.48;;;;;;;28.93;56.96;99664.03;5071117;28;20201;-77
2023/05/16 10:48:32;;;;;;;4.43;1.52;;;;;;;29.35;54.98;99662.13;5070921;28;20202;-76
2023/05/16 10:50:59;;;;;;;5.07;1.52;;;;;;;28.75;55.03;99638.59;5035685;28;20202;-76
2023/05/16 10:53:31;;;;;;;8.13;1.55;;;;;;;28.78;55.65;99669.56;5070697;28;20195;-76
2023/05/16 10:56:09;;;;;;;8.75;1.83;;;;;;;29.02;54.61;99671.44;5070948;28;20347;-76
2023/05/16 10:58:47;;;;;;;3.80;1.10;;;;;;;29.60;54.23;99675.50;5071113;28;20689;-80
2023/05/16 11:01:20;;;;;;;5.72;2.38;;;;;;;29.18;53.18;99592.97;5071188;28;20199;-80
2023/05/16 11:04:12;;;;;;;5.15;1.38;;;;;;;29.84;51.84;99644.41;5070988;28;20244;-81
2023/05/16 11:06:50;;;;;;;6.30;1.50;;;;;;;30.65;49.97;99682.19;5028940;28;20203;-78
2023/05/16 11:09:24;;;;;;;4.65;1.70;;;;;;;30.80;50.10;99673.03;5028727;28;20204;-79
2023/05/16 11:12:02;;;;;;;8.23;1.77;;;;;;;30.04;49.84;99655.50;5028726;28;20226;-79
2023/05/16 11:14:36;;;;;;;5.82;2.08;;;;;;;29.78;49.28;99626.09;5032614;28;20232;-79
2023/05/16 11:17:06;;;;;;;7.95;1.63;;;;;;;30.26;48.73;99652.97;5032577;28;20200;-79
2023/05/16 11:19:39;;;;;;;4.18;1.20;;;;;;;30.41;47.83;99635.78;5032421;28;20752;-78
2023/05/16 11:22:22;;;;;;;9.32;1.70;;;;;;;30.42;48.57;99632.19;5032428;28;20238;-81
2023/05/16 11:24:55;;;;;;;10.07;1.70;;;;;;;30.39;47.97;99590.41;4954096;29;20233;-80
2023/05/16 11:27:25;;;;;;;9.55;1.55;;;;;;;30.21;49.18;99639.09;4954146;29;20682;-79
2023/05/16 11:29:52;;;;;;;12.18;1.90;;;;;;;30.70;48.73;99645.22;4954067;29;20230;-80
2023/05/16 11:32:21;;;;;;;8.85;1.83;;;;;;;30.86;48.68;99650.28;4954200;29;20221;-81
2023/05/16 11:34:50;;;;;;;8.23;1.55;;;;;;;30.73;48.63;99615.53;4954303;29;20680;-80